This is the latest recevied weather packets stored in our database for station/object R6DH-11. If no packets are shown the sender has not sent any weather packets the latest 10 day(s).
| Time | Temp. | Humidity | Pressure | Rain* | Wind** | Luminosity | Snow |
|---|---|---|---|---|---|---|---|
| 1778114804 | 10° C | 75% | 1015 hPa | - | - | - | - |
| 1778113902 | 10° C | 74% | 1015 hPa | - | - | - | - |
| 1778113001 | 10° C | 74% | 1014.9 hPa | - | - | - | - |
| 1778112100 | 10.56° C | 73% | 1014.8 hPa | - | - | - | - |
| 1778111198 | 10.56° C | 72% | 1014.7 hPa | - | - | - | - |
| 1778110296 | 10.56° C | 71% | 1014.5 hPa | - | - | - | - |
| 1778109394 | 11.11° C | 71% | 1014.5 hPa | - | - | - | - |
| 1778108493 | 10.56° C | 71% | 1014.6 hPa | - | - | - | - |
| 1778107591 | 10.56° C | 72% | 1014.7 hPa | - | - | - | - |
| 1778106690 | 10.56° C | 71% | 1014.6 hPa | - | - | - | - |
| 1778105788 | 11.11° C | 70% | 1014.7 hPa | - | - | - | - |
| 1778104887 | 11.11° C | 70% | 1014.7 hPa | - | - | - | - |
| 1778103985 | 11.67° C | 69% | 1014.7 hPa | - | - | - | - |
| 1778103084 | 12.22° C | 68% | 1014.6 hPa | - | - | - | - |
| 1778102182 | 12.22° C | 67% | 1014.5 hPa | - | - | - | - |
| 1778101318 | 12.78° C | 66% | 1014.4 hPa | - | - | - | - |
| 1778100416 | 11.67° C | 65% | 1012.3 hPa | - | - | - | - |
| 1778099514 | 12.78° C | 65% | 1014.5 hPa | - | - | - | - |
| 1778098613 | 13.33° C | 64% | 1014.3 hPa | - | - | - | - |
| 1778097711 | 13.89° C | 62% | 1014.2 hPa | - | - | - | - |
| 1778096811 | 13.89° C | 61% | 1014.3 hPa | - | - | - | - |
| 1778095007 | 13.89° C | 61% | 1014.3 hPa | - | - | - | - |
| 1778094105 | 13.89° C | 62% | 1014.2 hPa | - | - | - | - |
| 1778093204 | 14.44° C | 60% | 1014.3 hPa | - | - | - | - |
| 1778092302 | 14.44° C | 58% | 1014.2 hPa | - | - | - | - |
* Rain since midnight (hover to see other rain measurements)
** Current wind speed in m/s (hover to see current wind gust speed)